createdAt,value
2023-02-06T00:00:54.647Z,100.00
2023-02-06T00:03:21.317Z,100.00
2023-02-06T00:06:00.825Z,100.00
2023-02-06T00:08:28.256Z,100.00
2023-02-06T00:10:55.235Z,100.00
2023-02-06T00:13:22.527Z,100.00
2023-02-06T00:15:49.173Z,100.00
2023-02-06T00:18:15.843Z,100.00
2023-02-06T00:20:42.410Z,100.00
2023-02-06T00:23:09.029Z,100.00
2023-02-06T00:25:35.926Z,100.00
2023-02-06T00:28:02.690Z,100.00
2023-02-06T00:30:29.530Z,100.00
2023-02-06T00:32:56.118Z,100.00
2023-02-06T00:35:22.734Z,100.00
2023-02-06T00:37:49.568Z,100.00
2023-02-06T00:40:17.005Z,100.00
2023-02-06T00:42:43.728Z,100.00
2023-02-06T00:45:10.959Z,100.00
2023-02-06T00:47:37.580Z,100.00
2023-02-06T00:50:04.677Z,100.00
2023-02-06T00:52:31.502Z,100.00
2023-02-06T00:54:58.066Z,100.00
2023-02-06T00:57:24.612Z,100.00
2023-02-06T00:59:51.202Z,100.00
2023-02-06T01:02:17.779Z,100.00
2023-02-06T01:04:44.316Z,100.00
2023-02-06T01:07:10.910Z,100.00
2023-02-06T01:09:37.578Z,100.00
2023-02-06T01:12:04.348Z,100.00
2023-02-06T01:14:30.908Z,100.00
2023-02-06T01:16:57.448Z,100.00
2023-02-06T01:19:24.000Z,100.00
2023-02-06T01:21:50.725Z,100.00
2023-02-06T01:24:17.246Z,100.00
2023-02-06T01:26:43.825Z,100.00
2023-02-06T01:29:10.490Z,100.00
2023-02-06T01:31:37.219Z,100.00
2023-02-06T01:34:03.880Z,100.00
2023-02-06T01:36:30.563Z,100.00
2023-02-06T01:38:57.230Z,100.00
2023-02-06T01:41:24.130Z,100.00
2023-02-06T01:44:13.388Z,100.00
2023-02-06T01:46:41.431Z,100.00
2023-02-06T01:49:12.483Z,100.00
2023-02-06T01:51:40.219Z,100.00
2023-02-06T01:54:07.696Z,100.00
2023-02-06T01:56:39.739Z,100.00
2023-02-06T01:59:06.650Z,100.00
2023-02-06T02:01:34.091Z,100.00
2023-02-06T02:04:06.704Z,100.00
2023-02-06T02:06:34.736Z,100.00
2023-02-06T02:09:03.225Z,100.00
2023-02-06T02:11:33.263Z,100.00
2023-02-06T02:14:01.932Z,100.00
2023-02-06T02:16:31.399Z,100.00
2023-02-06T02:19:22.792Z,100.00
2023-02-06T02:21:55.156Z,100.00
2023-02-06T02:24:41.607Z,100.00
2023-02-06T02:27:26.396Z,100.00
2023-02-06T02:29:52.942Z,100.00
2023-02-06T02:32:44.551Z,100.00
2023-02-06T02:35:29.873Z,100.00
2023-02-06T02:38:06.299Z,100.00
2023-02-06T02:40:57.298Z,100.00
2023-02-06T02:43:26.770Z,100.00
2023-02-06T02:46:04.382Z,100.00
2023-02-06T02:48:39.857Z,100.00
2023-02-06T02:51:08.062Z,100.00
2023-02-06T02:53:34.754Z,100.00
2023-02-06T02:56:01.543Z,100.00
2023-02-06T02:58:33.822Z,100.00
2023-02-06T03:01:08.980Z,100.00
2023-02-06T03:03:40.392Z,100.00
2023-02-06T03:06:12.830Z,100.00
2023-02-06T03:09:01.029Z,100.00
2023-02-06T03:11:27.947Z,100.00
2023-02-06T03:13:57.323Z,100.00
2023-02-06T03:16:29.841Z,100.00
2023-02-06T03:19:11.187Z,100.00
2023-02-06T03:21:39.379Z,100.00
2023-02-06T03:24:13.292Z,100.00
2023-02-06T03:26:41.754Z,100.00
2023-02-06T03:29:12.523Z,100.00
2023-02-06T03:31:50.015Z,100.00
2023-02-06T03:34:30.534Z,100.00
2023-02-06T03:36:57.417Z,100.00
2023-02-06T03:39:24.076Z,100.00
2023-02-06T03:41:51.879Z,100.00
2023-02-06T03:44:24.252Z,100.00
2023-02-06T03:46:53.280Z,100.00
2023-02-06T03:49:24.301Z,100.00
2023-02-06T03:52:07.601Z,100.00
2023-02-06T03:54:38.370Z,100.00
2023-02-06T03:57:07.547Z,100.00
2023-02-06T03:59:34.300Z,100.00
2023-02-06T04:02:03.909Z,100.00
2023-02-06T04:04:41.973Z,100.00
2023-02-06T04:07:23.877Z,100.00
2023-02-06T04:09:50.570Z,100.00
2023-02-06T04:12:17.495Z,100.00
2023-02-06T04:14:44.673Z,100.00
2023-02-06T04:17:12.294Z,100.00
2023-02-06T04:19:39.446Z,100.00
2023-02-06T04:22:07.130Z,100.00
2023-02-06T04:24:33.711Z,100.00
2023-02-06T04:27:00.392Z,100.00
2023-02-06T04:29:27.035Z,100.00
2023-02-06T04:31:53.598Z,100.00
2023-02-06T04:34:20.130Z,100.00
2023-02-06T04:36:46.694Z,100.00
2023-02-06T04:39:13.249Z,100.00
2023-02-06T04:41:39.821Z,100.00
2023-02-06T04:44:06.408Z,100.00
2023-02-06T04:46:32.986Z,100.00
2023-02-06T04:48:59.570Z,100.00
2023-02-06T04:51:26.207Z,100.00
2023-02-06T04:53:52.760Z,100.00
2023-02-06T04:56:19.379Z,100.00
2023-02-06T04:58:45.980Z,100.00
2023-02-06T05:01:12.711Z,100.00
2023-02-06T05:03:39.466Z,100.00
2023-02-06T05:06:06.337Z,100.00
2023-02-06T05:08:32.897Z,100.00
2023-02-06T05:10:59.493Z,100.00
2023-02-06T05:13:26.242Z,100.00
2023-02-06T05:15:53.320Z,100.00
2023-02-06T05:18:20.000Z,100.00
2023-02-06T05:20:46.901Z,100.00
2023-02-06T05:23:13.482Z,100.00
2023-02-06T05:25:42.202Z,100.00
2023-02-06T05:28:09.134Z,100.00
2023-02-06T05:30:36.390Z,100.00
2023-02-06T05:33:03.029Z,100.00
2023-02-06T05:35:29.930Z,100.00
2023-02-06T05:37:57.445Z,100.00
2023-02-06T05:40:24.319Z,100.00
2023-02-06T05:42:51.175Z,100.00
2023-02-06T05:45:17.823Z,100.00
2023-02-06T05:47:44.438Z,100.00
2023-02-06T05:50:11.016Z,100.00
2023-02-06T05:52:37.615Z,100.00
2023-02-06T05:55:04.289Z,100.00
2023-02-06T05:57:31.070Z,100.00
2023-02-06T05:59:57.606Z,100.00
2023-02-06T06:02:24.407Z,100.00
2023-02-06T06:04:51.055Z,100.00
2023-02-06T06:07:17.723Z,100.00
2023-02-06T06:09:44.286Z,100.00
2023-02-06T06:12:10.948Z,100.00
2023-02-06T06:14:37.475Z,100.00
2023-02-06T06:17:04.158Z,100.00
2023-02-06T06:19:30.803Z,100.00
2023-02-06T06:21:58.376Z,100.00
2023-02-06T06:24:25.819Z,100.00
2023-02-06T06:26:52.641Z,100.00
2023-02-06T06:29:19.264Z,100.00
2023-02-06T06:31:46.067Z,100.00
2023-02-06T06:34:12.803Z,100.00
2023-02-06T06:36:39.460Z,100.00
2023-02-06T06:39:06.213Z,100.00
2023-02-06T06:41:32.865Z,100.00
2023-02-06T06:43:59.634Z,100.00
2023-02-06T06:46:26.677Z,100.00
2023-02-06T06:48:53.321Z,100.00
2023-02-06T06:51:20.219Z,100.00
2023-02-06T06:53:46.802Z,100.00
2023-02-06T06:56:14.967Z,100.00
2023-02-06T06:58:42.253Z,100.00
2023-02-06T07:01:09.162Z,100.00
2023-02-06T07:03:36.754Z,100.00
2023-02-06T07:06:04.274Z,100.00
2023-02-06T07:08:31.500Z,100.00
2023-02-06T07:10:58.469Z,100.00
2023-02-06T07:13:25.177Z,100.00
2023-02-06T07:15:51.744Z,100.00
2023-02-06T07:18:18.509Z,100.00
2023-02-06T07:20:45.155Z,100.00
2023-02-06T07:23:11.720Z,100.00
2023-02-06T07:25:38.533Z,100.00
2023-02-06T07:28:05.401Z,100.00
2023-02-06T07:30:31.985Z,100.00
2023-02-06T07:32:58.567Z,100.00
2023-02-06T07:35:25.130Z,100.00
2023-02-06T07:37:55.182Z,100.00
2023-02-06T07:40:22.369Z,100.00
2023-02-06T07:42:49.117Z,100.00
2023-02-06T07:45:15.865Z,100.00
2023-02-06T07:47:42.894Z,100.00
2023-02-06T07:50:10.293Z,100.00
2023-02-06T07:52:37.004Z,100.00
2023-02-06T07:55:04.654Z,100.00
2023-02-06T07:57:31.334Z,100.00
2023-02-06T07:59:57.935Z,100.00
2023-02-06T08:02:25.020Z,100.00
2023-02-06T08:04:51.544Z,100.00
2023-02-06T08:07:18.138Z,100.00
2023-02-06T08:09:45.151Z,100.00
2023-02-06T08:12:12.106Z,100.00
2023-02-06T08:14:38.977Z,100.00
2023-02-06T08:17:05.857Z,100.00
2023-02-06T08:19:32.381Z,100.00
2023-02-06T08:21:58.934Z,100.00
2023-02-06T08:24:25.806Z,100.00
2023-02-06T08:26:52.384Z,100.00
2023-02-06T08:29:19.124Z,100.00
2023-02-06T08:31:45.900Z,100.00
2023-02-06T08:34:14.996Z,100.00
2023-02-06T08:36:43.689Z,100.00
2023-02-06T08:39:13.672Z,100.00
2023-02-06T08:41:43.590Z,100.00
2023-02-06T08:44:16.137Z,100.00
2023-02-06T08:46:44.451Z,100.00
2023-02-06T08:49:19.077Z,100.00
2023-02-06T08:51:46.282Z,100.00
2023-02-06T08:54:19.398Z,100.00
2023-02-06T08:56:46.310Z,100.00
2023-02-06T08:59:15.332Z,100.00
2023-02-06T09:01:45.367Z,100.00
2023-02-06T09:04:14.079Z,100.00
2023-02-06T09:06:43.450Z,100.00
2023-02-06T09:09:11.135Z,100.00
2023-02-06T09:11:37.950Z,100.00
2023-02-06T09:14:06.395Z,100.00
2023-02-06T09:16:34.048Z,100.00
2023-02-06T09:19:01.671Z,96.99
2023-02-06T09:21:33.662Z,96.22
2023-02-06T09:24:02.352Z,94.53
2023-02-06T09:26:38.891Z,98.22
2023-02-06T09:29:09.527Z,92.32
2023-02-06T09:31:39.199Z,96.80
2023-02-06T09:34:06.720Z,97.24
2023-02-06T09:36:35.116Z,95.15
2023-02-06T09:39:04.762Z,95.95
2023-02-06T09:41:37.646Z,100.00
2023-02-06T09:44:13.517Z,97.36
2023-02-06T09:46:54.214Z,98.05
2023-02-06T09:49:26.078Z,100.00
2023-02-06T09:51:55.652Z,84.29
2023-02-06T09:54:40.916Z,86.76
2023-02-06T09:57:15.429Z,86.68
2023-02-06T09:59:48.186Z,87.52
2023-02-06T10:02:33.096Z,88.77
2023-02-06T10:05:26.007Z,89.17
2023-02-06T10:08:19.238Z,89.32
2023-02-06T10:10:51.967Z,90.01
2023-02-06T10:13:24.278Z,90.73
2023-02-06T10:15:55.619Z,95.48
2023-02-06T10:18:48.574Z,96.97
2023-02-06T10:21:38.948Z,90.44
2023-02-06T10:24:14.329Z,90.65
2023-02-06T10:26:41.939Z,87.91
2023-02-06T10:29:20.002Z,87.65
2023-02-06T10:31:55.809Z,90.26
2023-02-06T10:34:45.994Z,78.16
2023-02-06T10:37:22.820Z,85.40
2023-02-06T10:39:55.212Z,78.62
2023-02-06T10:43:00.324Z,72.33
2023-02-06T10:45:32.807Z,74.32
2023-02-06T10:48:10.623Z,73.51
2023-02-06T10:50:44.363Z,73.42
2023-02-06T10:53:32.819Z,74.55
2023-02-06T10:56:12.747Z,69.16
2023-02-06T10:59:22.300Z,73.91
2023-02-06T11:01:53.948Z,73.70
2023-02-06T11:04:27.427Z,78.98
2023-02-06T11:07:00.601Z,76.74
2023-02-06T11:09:27.218Z,65.15
2023-02-06T11:11:56.806Z,67.01
2023-02-06T11:14:28.645Z,68.26
2023-02-06T11:16:59.516Z,64.79
2023-02-06T11:19:30.992Z,62.60
2023-02-06T11:22:12.573Z,62.78
2023-02-06T11:24:57.654Z,60.28
2023-02-06T11:27:24.603Z,58.21
2023-02-06T11:29:52.398Z,58.21
2023-02-06T11:33:02.548Z,52.13
2023-02-06T11:35:37.283Z,53.61
2023-02-06T11:38:12.948Z,54.82
2023-02-06T11:40:39.615Z,51.30
2023-02-06T11:43:12.262Z,54.35
2023-02-06T11:45:40.935Z,53.45
2023-02-06T11:48:31.843Z,51.55
2023-02-06T11:50:58.752Z,49.80
2023-02-06T11:53:25.411Z,54.98
2023-02-06T11:56:20.451Z,53.81
2023-02-06T11:59:00.448Z,51.08
2023-02-06T12:01:27.064Z,55.65
2023-02-06T12:03:58.193Z,56.93
2023-02-06T12:06:34.935Z,56.35
2023-02-06T12:09:05.631Z,56.27
2023-02-06T12:12:04.488Z,51.51
2023-02-06T12:14:31.016Z,52.24
2023-02-06T12:16:59.293Z,54.28
2023-02-06T12:19:35.516Z,52.17
2023-02-06T12:22:12.286Z,55.96
2023-02-06T12:24:43.811Z,54.02
2023-02-06T12:27:19.301Z,48.87
2023-02-06T12:30:06.907Z,54.73
2023-02-06T12:32:40.828Z,55.82
2023-02-06T12:35:21.597Z,54.64
2023-02-06T12:38:01.123Z,54.52
2023-02-06T12:40:45.961Z,49.72
2023-02-06T12:43:15.893Z,51.13
2023-02-06T12:45:53.982Z,49.14
2023-02-06T12:48:28.864Z,52.59
2023-02-06T12:51:10.177Z,54.17
2023-02-06T12:53:43.025Z,55.14
2023-02-06T12:56:21.517Z,57.22
2023-02-06T12:59:06.857Z,53.93
2023-02-06T13:01:52.876Z,55.50
2023-02-06T13:04:24.860Z,53.27
2023-02-06T13:07:05.178Z,51.24
2023-02-06T13:09:41.833Z,53.11
2023-02-06T13:12:20.330Z,50.63
2023-02-06T13:14:54.214Z,54.20
2023-02-06T13:17:34.450Z,51.67
2023-02-06T13:20:11.683Z,52.22
2023-02-06T13:22:49.528Z,50.59
2023-02-06T13:25:25.122Z,49.36
2023-02-06T13:27:53.240Z,50.08
2023-02-06T13:30:28.733Z,54.13
2023-02-06T13:33:16.390Z,49.19
2023-02-06T13:36:05.593Z,50.68
2023-02-06T13:38:35.129Z,50.24
2023-02-06T13:41:16.982Z,51.69
2023-02-06T13:43:57.738Z,54.41
2023-02-06T13:47:00.534Z,48.83
2023-02-06T13:49:39.145Z,47.82
2023-02-06T13:52:28.810Z,51.56
2023-02-06T13:55:14.366Z,50.09
2023-02-06T13:58:02.739Z,50.32
2023-02-06T14:00:32.468Z,50.10
2023-02-06T14:03:38.385Z,50.96
2023-02-06T14:06:11.000Z,52.28
2023-02-06T14:08:43.628Z,53.09
2023-02-06T14:11:25.311Z,49.58
2023-02-06T14:14:01.079Z,51.65
2023-02-06T14:16:54.189Z,50.07
2023-02-06T14:19:57.137Z,51.38
2023-02-06T14:22:46.670Z,48.77
2023-02-06T14:25:27.070Z,50.44
2023-02-06T14:27:59.881Z,49.60
2023-02-06T14:30:34.788Z,54.06
2023-02-06T14:33:25.486Z,52.25
2023-02-06T14:36:20.941Z,52.25
2023-02-06T14:39:19.148Z,100.00
2023-02-06T14:41:45.948Z,100.00
2023-02-06T14:44:22.330Z,100.00
2023-02-06T14:46:48.991Z,100.00
2023-02-06T14:49:23.817Z,100.00
2023-02-06T14:51:52.571Z,100.00
2023-02-06T14:54:34.740Z,100.00
2023-02-06T14:57:04.864Z,100.00
2023-02-06T14:59:32.397Z,100.00
2023-02-06T15:01:59.893Z,100.00
2023-02-06T15:04:30.630Z,100.00
2023-02-06T15:07:00.412Z,100.00
2023-02-06T15:09:37.794Z,100.00
2023-02-06T15:12:18.910Z,100.00
2023-02-06T15:14:55.177Z,100.00
2023-02-06T15:17:24.721Z,100.00
2023-02-06T15:19:51.298Z,100.00
2023-02-06T15:22:28.623Z,100.00
2023-02-06T15:25:07.553Z,100.00
2023-02-06T15:27:36.740Z,100.00
2023-02-06T15:30:18.099Z,100.00
2023-02-06T15:32:50.050Z,100.00
2023-02-06T15:35:35.944Z,100.00
2023-02-06T15:38:10.851Z,100.00
2023-02-06T15:40:42.251Z,100.00
2023-02-06T15:43:15.375Z,100.00
2023-02-06T15:45:44.128Z,100.00
2023-02-06T15:48:34.087Z,100.00
2023-02-06T15:51:16.021Z,100.00
2023-02-06T15:53:44.285Z,100.00
2023-02-06T15:56:23.395Z,100.00
2023-02-06T15:58:58.097Z,100.00
2023-02-06T16:01:26.392Z,100.00
2023-02-06T16:03:58.349Z,100.00
2023-02-06T16:06:24.990Z,52.25
2023-02-06T16:08:56.957Z,72.11
2023-02-06T16:11:47.468Z,69.91
2023-02-06T16:14:41.329Z,72.96
2023-02-06T16:17:14.197Z,72.26
2023-02-06T16:19:54.135Z,71.92
2023-02-06T16:22:28.047Z,74.50
2023-02-06T16:25:13.061Z,75.49
2023-02-06T16:27:45.674Z,76.28
2023-02-06T16:30:34.215Z,75.36
2023-02-06T16:33:21.697Z,76.63
2023-02-06T16:35:49.141Z,77.56
2023-02-06T16:38:15.695Z,77.63
2023-02-06T16:40:42.270Z,77.67
2023-02-06T16:43:11.425Z,76.49
2023-02-06T16:45:38.007Z,78.61
2023-02-06T16:48:11.791Z,79.40
2023-02-06T16:50:42.162Z,80.24
2023-02-06T16:53:24.390Z,78.83
2023-02-06T16:55:51.587Z,79.09
2023-02-06T16:58:23.719Z,80.73
2023-02-06T17:00:51.729Z,81.29
2023-02-06T17:03:18.338Z,81.80
2023-02-06T17:05:47.297Z,82.22
2023-02-06T17:08:17.711Z,83.03
2023-02-06T17:10:45.421Z,83.70
2023-02-06T17:13:23.545Z,84.05
2023-02-06T17:15:53.146Z,84.88
2023-02-06T17:18:21.753Z,85.41
2023-02-06T17:20:52.858Z,86.14
2023-02-06T17:23:19.560Z,85.30
2023-02-06T17:25:46.602Z,86.73
2023-02-06T17:28:16.997Z,87.66
2023-02-06T17:30:44.469Z,87.50
2023-02-06T17:33:11.478Z,87.78
2023-02-06T17:35:38.544Z,88.17
2023-02-06T17:38:07.050Z,89.69
2023-02-06T17:40:35.871Z,88.94
2023-02-06T17:43:04.689Z,90.40
2023-02-06T17:45:31.803Z,90.94
2023-02-06T17:47:58.406Z,90.28
2023-02-06T17:50:27.658Z,90.83
2023-02-06T17:52:55.787Z,91.11
2023-02-06T17:55:24.064Z,92.22
2023-02-06T17:57:51.352Z,92.11
2023-02-06T18:00:19.479Z,92.60
2023-02-06T18:02:46.265Z,92.92
2023-02-06T18:05:12.904Z,92.79
2023-02-06T18:07:39.985Z,92.96
2023-02-06T18:10:07.445Z,93.74
2023-02-06T18:12:34.476Z,92.74
2023-02-06T18:15:01.184Z,94.35
2023-02-06T18:17:27.770Z,95.07
2023-02-06T18:19:54.328Z,95.29
2023-02-06T18:22:21.850Z,94.96
2023-02-06T18:24:49.958Z,95.38
2023-02-06T18:27:17.722Z,95.09
2023-02-06T18:29:50.120Z,96.03
2023-02-06T18:32:19.150Z,96.45
2023-02-06T18:34:46.364Z,96.17
2023-02-06T18:37:13.067Z,95.55
2023-02-06T18:39:39.772Z,96.25
2023-02-06T18:42:25.215Z,96.50
2023-02-06T18:44:51.883Z,96.13
2023-02-06T18:47:18.994Z,96.52
2023-02-06T18:49:45.953Z,96.64
2023-02-06T18:52:12.623Z,96.73
2023-02-06T18:54:39.572Z,96.81
2023-02-06T18:57:06.567Z,96.43
2023-02-06T18:59:33.217Z,97.17
2023-02-06T19:01:59.923Z,96.88
2023-02-06T19:04:26.689Z,97.61
2023-02-06T19:06:53.297Z,97.90
2023-02-06T19:09:20.157Z,98.14
2023-02-06T19:11:47.782Z,99.02
2023-02-06T19:14:17.007Z,98.78
2023-02-06T19:16:47.344Z,99.42
2023-02-06T19:19:14.625Z,99.41
2023-02-06T19:21:41.902Z,99.95
2023-02-06T19:24:12.949Z,100.00
2023-02-06T19:26:39.590Z,100.00
2023-02-06T19:29:06.398Z,100.00
2023-02-06T19:31:34.950Z,100.00
2023-02-06T19:34:02.330Z,100.00
2023-02-06T19:36:29.983Z,100.00
2023-02-06T19:38:59.912Z,100.00
2023-02-06T19:41:28.469Z,99.70
2023-02-06T19:43:56.950Z,100.00
2023-02-06T19:46:26.043Z,100.00
2023-02-06T19:48:54.356Z,100.00
2023-02-06T19:51:34.632Z,100.00
2023-02-06T19:54:01.641Z,100.00
2023-02-06T19:56:32.696Z,100.00
2023-02-06T19:58:59.916Z,100.00
2023-02-06T20:01:29.571Z,100.00
2023-02-06T20:04:01.088Z,100.00
2023-02-06T20:06:29.456Z,100.00
2023-02-06T20:08:56.767Z,100.00
2023-02-06T20:11:23.764Z,100.00
2023-02-06T20:13:55.530Z,100.00
2023-02-06T20:16:25.278Z,100.00
2023-02-06T20:18:53.204Z,100.00
2023-02-06T20:21:27.925Z,100.00
2023-02-06T20:23:56.438Z,100.00
2023-02-06T20:26:26.613Z,100.00
2023-02-06T20:28:53.793Z,100.00
2023-02-06T20:31:21.304Z,100.00
2023-02-06T20:33:49.066Z,100.00
2023-02-06T20:36:18.861Z,100.00
2023-02-06T20:38:59.627Z,100.00
2023-02-06T20:41:30.926Z,100.00
2023-02-06T20:43:59.641Z,100.00
2023-02-06T20:46:28.403Z,100.00
2023-02-06T20:49:12.133Z,100.00
2023-02-06T20:51:38.706Z,100.00
2023-02-06T20:54:06.574Z,100.00
2023-02-06T20:56:33.672Z,100.00
2023-02-06T20:59:01.340Z,100.00
2023-02-06T21:01:30.773Z,100.00
2023-02-06T21:04:00.282Z,100.00
2023-02-06T21:06:28.060Z,100.00
2023-02-06T21:09:00.169Z,100.00
2023-02-06T21:11:34.086Z,100.00
2023-02-06T21:14:03.084Z,100.00
2023-02-06T21:16:31.297Z,100.00
2023-02-06T21:18:59.247Z,100.00
2023-02-06T21:21:26.762Z,100.00
2023-02-06T21:23:55.676Z,100.00
2023-02-06T21:26:23.800Z,100.00
2023-02-06T21:28:51.616Z,100.00
2023-02-06T21:31:34.162Z,100.00
2023-02-06T21:34:15.350Z,100.00
2023-02-06T21:36:42.685Z,100.00
2023-02-06T21:39:09.994Z,100.00
2023-02-06T21:41:37.192Z,100.00
2023-02-06T21:44:04.124Z,100.00
2023-02-06T21:46:30.994Z,100.00
2023-02-06T21:48:57.768Z,100.00
2023-02-06T21:51:24.630Z,100.00
2023-02-06T21:53:51.447Z,100.00
2023-02-06T21:56:23.871Z,100.00
2023-02-06T21:58:51.156Z,100.00
2023-02-06T22:01:21.190Z,100.00
2023-02-06T22:03:48.542Z,100.00
2023-02-06T22:06:15.893Z,100.00
2023-02-06T22:08:45.912Z,100.00
2023-02-06T22:11:24.870Z,100.00
2023-02-06T22:13:52.008Z,100.00
2023-02-06T22:16:22.831Z,99.72
2023-02-06T22:18:50.142Z,97.94
2023-02-06T22:21:20.443Z,99.24
2023-02-06T22:23:48.374Z,98.54
2023-02-06T22:26:17.485Z,96.79
2023-02-06T22:28:44.859Z,97.89
2023-02-06T22:31:15.212Z,99.55
2023-02-06T22:33:42.758Z,100.00
2023-02-06T22:36:14.868Z,99.48
2023-02-06T22:38:43.018Z,99.21
2023-02-06T22:41:15.715Z,99.82
2023-02-06T22:43:43.586Z,98.28
2023-02-06T22:46:16.811Z,98.95
2023-02-06T22:48:43.388Z,99.59
2023-02-06T22:51:10.505Z,98.70
2023-02-06T22:53:38.184Z,98.64
2023-02-06T22:56:26.564Z,99.49
2023-02-06T22:59:23.353Z,98.40
2023-02-06T23:01:53.102Z,99.70
2023-02-06T23:04:22.969Z,100.00
2023-02-06T23:06:50.698Z,100.00
2023-02-06T23:09:24.271Z,100.00
2023-02-06T23:11:51.754Z,100.00
2023-02-06T23:14:18.929Z,100.00
2023-02-06T23:16:46.172Z,99.87
2023-02-06T23:19:14.270Z,100.00
2023-02-06T23:21:42.648Z,100.00
2023-02-06T23:24:10.355Z,100.00
2023-02-06T23:26:37.617Z,100.00
2023-02-06T23:29:07.000Z,100.00
2023-02-06T23:31:34.004Z,100.00
2023-02-06T23:34:00.757Z,100.00
2023-02-06T23:36:28.726Z,100.00
2023-02-06T23:38:55.878Z,100.00
2023-02-06T23:41:25.522Z,100.00
2023-02-06T23:43:55.173Z,100.00
2023-02-06T23:46:22.401Z,100.00
2023-02-06T23:48:49.462Z,100.00
2023-02-06T23:51:17.499Z,100.00
2023-02-06T23:53:44.256Z,100.00
2023-02-06T23:56:14.360Z,100.00
2023-02-06T23:58:41.365Z,100.00
